createdAt,value
2018-06-29T00:05:13.592Z,18.55
2018-06-29T00:15:13.025Z,18.35
2018-06-29T00:25:10.752Z,18.57
2018-06-29T00:35:09.475Z,18.52
2018-06-29T00:45:16.178Z,19.35
2018-06-29T00:55:11.887Z,19.15
2018-06-29T01:05:08.850Z,18.89
2018-06-29T01:15:03.759Z,18.73
2018-06-29T01:24:59.337Z,18.67
2018-06-29T01:34:58.380Z,18.71
2018-06-29T01:45:02.756Z,18.67
2018-06-29T01:55:00.206Z,18.67
2018-06-29T02:04:58.538Z,18.55
2018-06-29T02:14:57.819Z,18.52
2018-06-29T02:24:57.430Z,18.53
2018-06-29T02:34:56.365Z,18.84
2018-06-29T02:44:54.399Z,18.82
2018-06-29T02:54:54.003Z,18.76
2018-06-29T03:04:52.575Z,18.52
2018-06-29T03:14:50.900Z,18.86
2018-06-29T03:24:49.415Z,18.83
2018-06-29T03:34:46.495Z,18.97
2018-06-29T03:44:45.949Z,19.14
2018-06-29T03:54:44.767Z,19.38
2018-06-29T04:04:43.545Z,19.13
2018-06-29T04:14:41.877Z,19.13
2018-06-29T04:24:38.871Z,18.80
2018-06-29T04:34:37.417Z,19.13
2018-06-29T04:44:33.667Z,18.94
2018-06-29T04:54:31.687Z,19.09
2018-06-29T05:04:30.021Z,18.82
2018-06-29T05:14:28.967Z,19.11
2018-06-29T05:24:27.911Z,19.20
2018-06-29T05:34:27.513Z,19.42
2018-06-29T05:44:26.674Z,19.58
2018-06-29T05:54:25.013Z,19.86
2018-06-29T06:04:24.139Z,19.98
2018-06-29T06:14:21.615Z,20.00
2018-06-29T06:24:20.172Z,19.98
2018-06-29T06:34:17.775Z,19.91
2018-06-29T06:44:12.666Z,20.46
2018-06-29T06:54:12.839Z,21.31
2018-06-29T07:04:10.086Z,21.75
2018-06-29T07:14:09.070Z,21.92
2018-06-29T07:24:09.277Z,22.19
2018-06-29T07:34:05.911Z,22.50
2018-06-29T07:44:05.083Z,23.20
2018-06-29T07:54:03.484Z,24.10
2018-06-29T08:04:02.939Z,23.95
2018-06-29T08:14:00.883Z,23.79
2018-06-29T08:23:59.320Z,23.45
2018-06-29T08:33:55.925Z,23.89
2018-06-29T08:43:53.835Z,24.17
2018-06-29T08:53:54.180Z,24.62
2018-06-29T09:03:48.204Z,24.20
2018-06-29T09:13:46.105Z,24.19
2018-06-29T09:23:44.690Z,24.35
2018-06-29T09:33:43.371Z,24.85
2018-06-29T09:43:40.572Z,24.52
2018-06-29T09:53:38.184Z,24.41
2018-06-29T10:03:36.212Z,24.02
2018-06-29T10:13:32.528Z,24.44
2018-06-29T10:23:31.886Z,24.57
2018-06-29T10:33:29.832Z,24.50
2018-06-29T10:43:26.615Z,25.12
2018-06-29T10:53:24.761Z,25.37
2018-06-29T11:03:19.945Z,25.59
2018-06-29T11:13:18.380Z,26.28
2018-06-29T11:23:18.088Z,25.35
2018-06-29T11:33:13.387Z,25.25
2018-06-29T11:43:07.076Z,25.15
2018-06-29T11:53:04.840Z,24.66
2018-06-29T12:03:01.063Z,24.59
2018-06-29T12:12:59.938Z,24.98
2018-06-29T12:22:56.272Z,25.68
2018-06-29T12:32:56.166Z,26.77
2018-06-29T12:42:52.882Z,27.50
2018-06-29T12:52:41.938Z,27.20
2018-06-29T13:02:28.442Z,28.19
2018-06-29T13:12:25.777Z,28.86
2018-06-29T13:22:17.856Z,29.04
2018-06-29T13:32:17.424Z,27.89
2018-06-29T13:42:15.151Z,27.41
2018-06-29T13:52:08.687Z,28.49
2018-06-29T14:02:08.781Z,28.91
2018-06-29T14:12:04.530Z,28.44
2018-06-29T14:21:58.147Z,29.09
2018-06-29T14:31:58.918Z,28.68
2018-06-29T14:41:52.995Z,28.93
2018-06-29T14:51:44.355Z,26.58
2018-06-29T15:01:34.713Z,25.96
2018-06-29T15:11:17.624Z,26.32
2018-06-29T15:21:14.934Z,25.83
2018-06-29T15:31:10.217Z,25.35
2018-06-29T15:41:07.737Z,25.20
2018-06-29T15:51:04.059Z,25.23
2018-06-29T16:00:59.891Z,25.19
2018-06-29T16:10:58.954Z,25.55
2018-06-29T16:20:54.243Z,25.19
2018-06-29T16:30:51.036Z,24.93
2018-06-29T16:40:45.640Z,24.60
2018-06-29T16:50:39.057Z,24.69
2018-06-29T17:00:36.319Z,24.69
2018-06-29T17:10:33.209Z,24.71
2018-06-29T17:20:27.130Z,24.40
2018-06-29T17:30:20.642Z,24.35
2018-06-29T17:40:17.454Z,23.95
2018-06-29T17:50:17.253Z,24.08
2018-06-29T18:00:13.723Z,23.97
2018-06-29T18:09:57.108Z,23.89
2018-06-29T18:19:56.472Z,23.61
2018-06-29T18:29:53.887Z,23.65
2018-06-29T18:39:50.883Z,23.63
2018-06-29T18:49:48.255Z,23.52
2018-06-29T18:59:41.515Z,23.24
2018-06-29T19:09:37.764Z,23.31
2018-06-29T19:19:35.627Z,23.09
2018-06-29T19:29:32.162Z,23.08
2018-06-29T19:39:31.200Z,23.12
2018-06-29T19:49:22.269Z,22.96
2018-06-29T19:59:20.455Z,22.92
2018-06-29T20:09:20.033Z,22.72
2018-06-29T20:19:14.692Z,22.54
2018-06-29T20:29:11.845Z,22.62
2018-06-29T20:39:09.867Z,22.47
2018-06-29T20:49:04.981Z,22.41
2018-06-29T20:59:03.005Z,22.44
2018-06-29T21:09:01.741Z,22.44
2018-06-29T21:18:58.891Z,22.22
2018-06-29T21:28:56.891Z,22.13
2018-06-29T21:38:55.495Z,22.22
2018-06-29T21:48:54.395Z,22.39
2018-06-29T21:58:46.439Z,22.39
2018-06-29T22:08:42.336Z,21.81
2018-06-29T22:18:39.773Z,21.42
2018-06-29T22:28:38.582Z,21.51
2018-06-29T22:38:37.191Z,21.45
2018-06-29T22:48:33.699Z,20.98
2018-06-29T22:58:31.616Z,20.74
2018-06-29T23:08:29.483Z,20.66
2018-06-29T23:18:27.458Z,20.59
2018-06-29T23:28:26.214Z,20.40
2018-06-29T23:38:23.032Z,20.47
2018-06-29T23:48:21.816Z,20.24
2018-06-29T23:58:19.994Z,20.08
